Time;durP1;ratioP1;P1;durP2;ratioP2;P2;SDS_P1;SDS_P2;PMS_P1;PMS_P2;Temp;Humidity;BMP_temperature;BMP_pressure;BME280_temperature;BME280_humidity;BME280_pressure;Samples;Min_cycle;Max_cycle;Signal;HPM_P1;HPM_P2
2023/10/05 00:04:41;;;;;;;10.73;9.45;;;;;;;18.62;59.18;95718.38;5024892;28;20237;-69
2023/10/05 00:07:16;;;;;;;13.10;9.18;;;;;;;18.58;59.30;95729.59;5025253;28;20979;-69
2023/10/05 00:09:43;;;;;;;10.15;9.00;;;;;;;18.40;60.00;95719.31;5022935;28;20226;-68
2023/10/05 00:12:13;;;;;;;9.70;8.20;;;;;;;18.36;59.74;95718.84;5025075;28;20275;-69
2023/10/05 00:14:38;;;;;;;10.15;8.50;;;;;;;18.21;60.62;95726.00;5028008;28;20194;-69
2023/10/05 00:17:07;;;;;;;11.63;8.63;;;;;;;18.09;60.95;95720.28;5024867;28;20237;-68
2023/10/05 00:19:36;;;;;;;12.50;9.18;;;;;;;18.19;60.54;95717.38;5030880;28;20222;-69
2023/10/05 00:22:02;;;;;;;11.43;9.30;;;;;;;18.20;60.57;95719.00;5023308;28;20229;-76
2023/10/05 00:24:41;;;;;;;17.05;9.27;;;;;;;18.17;60.83;95717.53;5030351;28;20308;-78
2023/10/05 00:27:12;;;;;;;11.85;8.77;;;;;;;18.12;60.94;95713.78;5042656;28;20687;-79
2023/10/05 00:32:48;;;;;;;10.40;8.27;;;;;;;18.13;60.84;95708.28;5038684;28;20270;-79
2023/10/05 00:35:20;;;;;;;12.23;8.85;;;;;;;18.10;60.88;95713.97;5040497;28;20195;-78
2023/10/05 00:37:47;;;;;;;13.40;9.20;;;;;;;18.04;61.02;95712.88;5042103;28;20271;-78
2023/10/05 00:40:36;;;;;;;10.43;9.07;;;;;;;17.94;61.25;95716.78;5044748;28;20225;-78
2023/10/05 00:43:04;;;;;;;9.85;8.88;;;;;;;17.83;61.85;95712.72;5047513;28;20716;-77
2023/10/05 00:45:31;;;;;;;18.00;9.35;;;;;;;17.94;61.49;95716.78;5041458;28;21039;-79
2023/10/05 00:48:08;;;;;;;10.50;9.40;;;;;;;17.96;61.29;95712.94;5050107;28;20533;-79
2023/10/05 00:50:34;;;;;;;15.30;8.48;;;;;;;17.99;61.22;95717.03;5039834;28;20182;-79
2023/10/05 00:52:59;;;;;;;9.73;8.82;;;;;;;18.01;60.92;95715.88;5044108;28;20304;-78
2023/10/05 00:55:26;;;;;;;18.13;8.43;;;;;;;18.03;60.74;95718.34;5040668;28;20214;-80
2023/10/05 00:57:52;;;;;;;14.02;9.35;;;;;;;18.00;61.01;95708.91;5036431;28;20226;-78
2023/10/05 01:00:33;;;;;;;11.68;8.77;;;;;;;17.98;61.13;95708.25;5040091;28;20249;-77
2023/10/05 01:03:17;;;;;;;11.85;9.48;;;;;;;18.02;60.86;95706.06;5046620;28;20621;-77
2023/10/05 01:05:56;;;;;;;11.75;8.60;;;;;;;17.82;61.58;95711.88;5048600;28;20255;-78
2023/10/05 01:08:23;;;;;;;10.77;8.95;;;;;;;17.94;61.14;95704.31;5043735;28;20217;-78
2023/10/05 01:10:56;;;;;;;12.40;8.60;;;;;;;17.90;61.28;95703.00;5036948;28;20280;-78
2023/10/05 01:13:33;;;;;;;9.40;8.32;;;;;;;17.86;61.61;95704.38;5041581;28;20580;-79
2023/10/05 01:16:03;;;;;;;11.85;8.55;;;;;;;18.00;61.08;95703.56;5048682;28;20232;-78
2023/10/05 01:18:30;;;;;;;12.38;8.60;;;;;;;18.05;60.64;95701.19;5040805;28;20229;-77
2023/10/05 01:20:57;;;;;;;11.23;8.88;;;;;;;17.96;61.07;95696.13;5049947;28;20224;-77
2023/10/05 01:23:31;;;;;;;11.13;8.57;;;;;;;17.93;61.42;95699.16;5043643;28;20237;-78
2023/10/05 01:25:57;;;;;;;11.70;8.68;;;;;;;18.00;60.95;95703.56;5038552;28;20767;-77
2023/10/05 01:28:23;;;;;;;13.43;8.57;;;;;;;17.89;61.41;95697.88;5045041;28;20225;-78
2023/10/05 01:30:48;;;;;;;10.13;8.20;;;;;;;17.88;61.04;95690.88;5042363;28;20236;-78
2023/10/05 01:33:14;;;;;;;13.43;8.75;;;;;;;17.85;61.11;95698.25;5044104;28;20225;-78
2023/10/05 01:35:43;;;;;;;11.57;8.40;;;;;;;17.96;60.68;95696.13;5044638;28;20224;-78
2023/10/05 01:38:08;;;;;;;14.88;8.38;;;;;;;17.84;61.04;95687.78;5048061;28;20698;-75
2023/10/05 01:40:36;;;;;;;8.45;7.53;;;;;;;17.96;60.64;95690.81;5039512;28;20225;-76
2023/10/05 01:43:01;;;;;;;10.18;7.72;;;;;;;18.01;60.12;95694.56;5042411;28;20276;-74
2023/10/05 01:45:30;;;;;;;9.90;7.60;;;;;;;17.94;60.54;95691.00;5040922;28;20970;-76
2023/10/05 01:48:01;;;;;;;11.18;7.72;;;;;;;18.03;60.16;95697.88;5041379;28;20554;-79
2023/10/05 01:50:26;;;;;;;9.55;7.65;;;;;;;18.04;59.95;95699.56;5040314;28;20197;-79
2023/10/05 01:52:57;;;;;;;10.75;8.63;;;;;;;18.05;60.05;95692.41;5050640;28;20220;-80
2023/10/05 01:55:27;;;;;;;11.07;8.02;;;;;;;17.88;60.09;95690.88;5043413;28;20226;-79
2023/10/05 01:57:53;;;;;;;9.60;7.70;;;;;;;17.71;60.75;95682.19;5046135;28;20278;-79
2023/10/05 02:00:19;;;;;;;10.95;8.20;;;;;;;17.83;60.53;95691.44;5040401;28;20232;-79
2023/10/05 02:02:46;;;;;;;12.55;7.13;;;;;;;17.91;60.13;95693.19;5036680;28;20225;-76
2023/10/05 02:05:13;;;;;;;17.25;7.97;;;;;;;18.00;59.74;95698.25;5038659;28;20197;-79
2023/10/05 02:07:38;;;;;;;12.05;8.40;;;;;;;18.04;59.72;95696.91;5046076;28;20909;-80
2023/10/05 02:10:09;;;;;;;11.20;7.57;;;;;;;18.03;59.80;95691.75;5036241;28;20214;-80
2023/10/05 02:12:35;;;;;;;7.47;6.72;;;;;;;18.01;59.51;95689.25;5043854;28;20229;-79
2023/10/05 02:15:05;;;;;;;9.60;7.47;;;;;;;18.00;59.39;95690.28;5036089;28;20793;-79
2023/10/05 02:17:30;;;;;;;12.15;8.27;;;;;;;18.17;59.00;95700.75;5037438;28;20194;-79
2023/10/05 02:19:56;;;;;;;9.30;7.55;;;;;;;18.12;59.00;95698.63;5044606;28;20264;-80
2023/10/05 02:22:22;;;;;;;9.90;7.95;;;;;;;18.01;59.63;95691.09;5042279;28;20276;-80
2023/10/05 02:24:51;;;;;;;10.32;7.65;;;;;;;18.00;59.47;95698.25;5037223;28;20225;-79
2023/10/05 02:27:17;;;;;;;9.70;7.63;;;;;;;18.06;59.28;95694.03;5036915;28;20230;-79
2023/10/05 02:29:43;;;;;;;9.65;8.13;;;;;;;18.01;59.58;95704.41;5042374;28;20182;-80
2023/10/05 02:32:11;;;;;;;12.45;7.10;;;;;;;18.00;59.47;95708.91;5043972;28;20213;-79
2023/10/05 02:34:59;;;;;;;12.77;7.75;;;;;;;18.00;59.31;95703.56;5037464;28;20275;-79
2023/10/05 02:37:24;;;;;;;12.93;7.32;;;;;;;18.02;59.25;95706.88;5043865;28;20238;-79
2023/10/05 02:39:50;;;;;;;10.30;7.10;;;;;;;18.00;59.36;95703.56;5044569;28;20244;-79
2023/10/05 02:42:16;;;;;;;11.18;7.15;;;;;;;17.87;59.77;95705.22;5044014;28;20598;-79
2023/10/05 02:44:45;;;;;;;8.73;7.43;;;;;;;17.89;59.45;95706.69;5049986;28;20661;-80
2023/10/05 02:47:14;;;;;;;10.13;7.20;;;;;;;17.91;59.68;95710.00;5046271;28;20234;-80
2023/10/05 02:49:44;;;;;;;8.88;7.55;;;;;;;17.92;59.35;95716.97;5045639;28;20366;-80
2023/10/05 02:52:13;;;;;;;8.85;7.35;;;;;;;17.97;59.00;95703.94;5041744;28;20229;-80
2023/10/05 02:54:39;;;;;;;12.63;7.70;;;;;;;17.99;58.71;95709.91;5038219;28;20233;-80
2023/10/05 02:57:08;;;;;;;12.07;7.13;;;;;;;17.88;58.99;95709.50;5042745;28;20236;-79
2023/10/05 02:59:34;;;;;;;10.00;8.38;;;;;;;17.84;59.29;95715.19;5045738;28;20193;-78
2023/10/05 03:02:06;;;;;;;10.65;8.60;;;;;;;17.76;59.54;95709.91;5044501;28;20209;-78
2023/10/05 03:04:45;;;;;;;11.20;8.80;;;;;;;17.76;59.59;95706.44;5047869;28;20228;-78
2023/10/05 03:07:17;;;;;;;14.48;7.88;;;;;;;17.84;59.19;95714.38;5043285;28;20225;-79
2023/10/05 03:09:44;;;;;;;14.32;8.55;;;;;;;17.60;59.69;95718.84;5040432;28;20248;-79
2023/10/05 03:12:13;;;;;;;11.88;8.93;;;;;;;17.68;59.29;95709.16;5046981;28;20246;-78
2023/10/05 03:14:44;;;;;;;10.55;8.43;;;;;;;17.50;59.72;95718.25;5043570;28;20184;-77
2023/10/05 03:17:15;;;;;;;15.07;8.65;;;;;;;17.50;59.75;95696.97;5046966;28;20217;-77
2023/10/05 03:19:41;;;;;;;15.20;9.93;;;;;;;17.56;59.40;95712.25;5046191;28;20220;-77
2023/10/05 03:22:12;;;;;;;12.38;8.68;;;;;;;17.60;58.83;95702.06;5039900;28;20222;-77
2023/10/05 03:24:50;;;;;;;11.52;9.65;;;;;;;17.40;59.21;95701.72;5045276;28;20222;-77
2023/10/05 03:27:16;;;;;;;16.55;10.20;;;;;;;17.37;59.04;95704.72;5039043;28;20222;-77
2023/10/05 03:29:52;;;;;;;11.10;9.65;;;;;;;17.28;59.13;95705.78;5045119;28;20577;-77
2023/10/05 03:32:19;;;;;;;13.98;9.77;;;;;;;17.28;58.89;95713.78;5042878;28;20236;-78
2023/10/05 03:34:53;;;;;;;12.70;9.73;;;;;;;17.07;59.36;95719.69;5044084;28;20213;-77
2023/10/05 03:37:18;;;;;;;13.40;9.73;;;;;;;17.01;59.65;95718.56;5041435;28;20238;-75
2023/10/05 03:42:28;;;;;;;14.07;10.30;;;;;;;17.06;59.53;95726.84;5044191;28;20296;-78
2023/10/05 03:45:03;;;;;;;15.32;10.25;;;;;;;17.10;59.18;95729.97;5044315;28;20202;-78
2023/10/05 03:47:37;;;;;;;18.23;11.10;;;;;;;17.05;58.92;95727.00;5042396;28;20690;-79
2023/10/05 03:50:03;;;;;;;11.38;9.95;;;;;;;17.12;58.58;95728.81;5058674;28;20631;-78
2023/10/05 03:52:35;;;;;;;12.40;10.25;;;;;;;17.16;58.25;95726.63;5038199;28;20242;-70
2023/10/05 03:55:09;;;;;;;15.55;10.32;;;;;;;17.00;58.58;95730.22;5040989;28;20237;-71
2023/10/05 03:57:35;;;;;;;12.05;9.50;;;;;;;16.97;58.65;95725.22;5041053;28;20241;-72
2023/10/05 04:00:18;;;;;;;19.85;10.88;;;;;;;17.02;58.66;95736.16;5047435;28;20193;-76
2023/10/05 04:02:44;;;;;;;14.68;11.52;;;;;;;16.83;59.03;95732.09;5042194;28;20279;-71
2023/10/05 04:05:11;;;;;;;15.23;10.95;;;;;;;16.68;59.37;95726.66;5038866;28;20222;-71
2023/10/05 04:07:39;;;;;;;14.32;10.57;;;;;;;16.73;59.43;95737.59;5043237;28;21098;-74
2023/10/05 04:10:13;;;;;;;18.98;11.13;;;;;;;16.72;59.35;95737.78;5044115;28;20257;-71
2023/10/05 04:12:40;;;;;;;21.05;11.77;;;;;;;16.68;59.73;95739.09;5038011;28;20301;-70
2023/10/05 04:15:09;;;;;;;17.60;11.23;;;;;;;16.76;59.38;95742.56;5040253;28;20225;-69
2023/10/05 04:17:35;;;;;;;16.60;11.45;;;;;;;16.65;59.42;95735.00;5039755;28;20288;-73
2023/10/05 04:20:03;;;;;;;19.50;12.05;;;;;;;16.61;59.65;95725.69;5048151;28;20217;-72
2023/10/05 04:22:28;;;;;;;23.95;12.63;;;;;;;16.60;59.78;95737.31;5042235;28;20245;-71
2023/10/05 04:24:54;;;;;;;15.25;11.10;;;;;;;16.51;60.09;95733.84;5043154;28;20217;-75
2023/10/05 04:27:20;;;;;;;16.15;11.63;;;;;;;16.61;60.11;95736.31;5042561;28;20765;-73
2023/10/05 04:29:45;;;;;;;17.42;11.65;;;;;;;16.54;60.36;95738.00;5040091;28;20279;-74
2023/10/05 04:32:15;;;;;;;15.38;11.80;;;;;;;16.62;60.08;95739.78;5041327;28;20182;-67
2023/10/05 04:34:41;;;;;;;18.20;11.23;;;;;;;16.59;60.24;95733.00;5040088;28;20226;-71
2023/10/05 04:37:06;;;;;;;21.48;12.02;;;;;;;16.52;60.48;95734.69;5043767;28;20796;-68
2023/10/05 04:39:32;;;;;;;17.25;12.30;;;;;;;16.61;60.25;95741.63;5040212;28;20736;-70
2023/10/05 04:42:05;;;;;;;14.65;12.45;;;;;;;16.70;60.22;95742.41;5043008;28;20231;-67
2023/10/05 04:44:31;;;;;;;16.15;11.20;;;;;;;16.65;60.33;95750.06;5042582;28;20219;-73
2023/10/05 04:46:56;;;;;;;18.40;10.23;;;;;;;16.54;60.79;95745.94;5044565;28;20794;-73
2023/10/05 04:49:24;;;;;;;12.65;10.85;;;;;;;16.48;60.93;95750.13;5036437;28;20237;-72
2023/10/05 04:51:51;;;;;;;16.15;10.30;;;;;;;16.40;61.17;95751.97;5040351;28;20246;-72
2023/10/05 04:54:25;;;;;;;14.85;9.90;;;;;;;16.50;60.99;95758.75;5038944;28;20230;-73
2023/10/05 04:56:54;;;;;;;10.85;8.45;;;;;;;16.64;60.11;95759.88;5039127;28;20192;-73
2023/10/05 04:59:28;;;;;;;16.60;8.82;;;;;;;16.43;60.58;95759.59;5040882;28;20183;-73
2023/10/05 05:01:59;;;;;;;16.50;9.07;;;;;;;16.32;60.99;95764.25;5047413;28;20293;-73
2023/10/05 05:04:52;;;;;;;13.15;8.07;;;;;;;16.27;61.03;95771.91;5046350;28;20226;-73
2023/10/05 05:07:21;;;;;;;13.98;8.10;;;;;;;16.20;61.04;95772.72;5038330;28;20225;-73
2023/10/05 05:09:47;;;;;;;15.73;8.48;;;;;;;16.29;60.64;95767.25;5042633;28;20593;-73
2023/10/05 05:12:16;;;;;;;13.73;8.40;;;;;;;16.41;60.40;95773.06;5041727;28;20686;-73
2023/10/05 05:14:49;;;;;;;13.15;7.97;;;;;;;16.44;60.07;95774.50;5039295;28;20205;-73
2023/10/05 05:17:18;;;;;;;10.57;7.43;;;;;;;16.46;59.96;95781.31;5042737;28;20232;-74
2023/10/05 05:19:47;;;;;;;15.85;7.80;;;;;;;16.59;59.65;95786.09;5042921;28;20210;-74
2023/10/05 05:22:13;;;;;;;13.85;7.03;;;;;;;16.70;58.98;95780.41;5039883;28;20228;-73
2023/10/05 05:24:41;;;;;;;11.25;7.03;;;;;;;16.74;58.75;95779.09;5041245;28;20233;-73
2023/10/05 05:29:53;;;;;;;12.40;7.50;;;;;;;16.75;58.60;95779.91;5041345;28;20173;-73
2023/10/05 05:32:19;;;;;;;11.93;7.40;;;;;;;16.71;58.63;95782.09;5039762;28;20247;-72
2023/10/05 05:34:45;;;;;;;11.05;7.05;;;;;;;16.76;58.83;95782.41;5046824;28;20225;-72
2023/10/05 05:37:25;;;;;;;15.25;6.70;;;;;;;16.90;57.74;95788.03;5043443;28;20222;-72
2023/10/05 05:39:50;;;;;;;13.57;6.47;;;;;;;16.97;57.29;95789.84;5039602;28;20217;-72
2023/10/05 05:42:18;;;;;;;12.68;6.32;;;;;;;16.93;56.63;95791.16;5026434;28;20233;-73
2023/10/05 05:44:44;;;;;;;16.15;7.22;;;;;;;16.96;56.77;95797.97;5045066;28;20198;-73
2023/10/05 05:47:10;;;;;;;17.13;7.22;;;;;;;16.95;56.79;95798.97;5043127;28;20254;-72
2023/10/05 05:49:40;;;;;;;16.42;6.65;;;;;;;17.04;56.70;95808.56;5039444;28;20292;-71
2023/10/05 05:52:08;;;;;;;15.32;6.93;;;;;;;17.05;56.65;95801.41;5043995;28;20222;-72
2023/10/05 05:54:36;;;;;;;13.85;7.15;;;;;;;17.03;56.66;95793.63;5039102;28;20241;-72
2023/10/05 05:57:08;;;;;;;15.10;6.75;;;;;;;17.18;55.77;95797.19;5050738;28;20180;-72
2023/10/05 05:59:40;;;;;;;12.40;6.50;;;;;;;17.48;54.93;95801.84;5046139;28;20240;-71
2023/10/05 06:02:10;;;;;;;13.95;6.93;;;;;;;17.34;55.40;95808.75;5038856;28;20217;-71
2023/10/05 06:04:38;;;;;;;10.50;6.47;;;;;;;17.44;54.88;95809.38;5039931;28;20222;-71
2023/10/05 06:07:11;;;;;;;15.63;7.13;;;;;;;17.38;54.66;95812.72;5040510;28;20318;-71
2023/10/05 06:09:37;;;;;;;10.23;6.15;;;;;;;17.42;54.73;95817.50;5039974;28;20225;-74
2023/10/05 06:12:03;;;;;;;13.38;5.63;;;;;;;17.49;54.33;95809.66;5047567;28;20206;-69
2023/10/05 06:14:31;;;;;;;15.57;6.22;;;;;;;17.63;53.61;95818.72;5049246;28;20178;-71
2023/10/05 06:16:57;;;;;;;12.68;5.63;;;;;;;17.71;53.69;95816.00;5046627;28;20232;-71
2023/10/05 06:19:23;;;;;;;9.32;5.40;;;;;;;17.65;53.34;95816.72;5046858;28;20709;-71
2023/10/05 06:21:48;;;;;;;10.60;5.63;;;;;;;17.74;53.47;95822.81;5042201;28;20220;-73
2023/10/05 06:24:14;;;;;;;14.80;5.70;;;;;;;17.76;53.54;95816.31;5047563;28;20228;-73
2023/10/05 06:26:40;;;;;;;15.55;5.88;;;;;;;17.73;52.78;95808.69;5053367;28;20643;-73
2023/10/05 06:29:08;;;;;;;12.00;6.00;;;;;;;17.77;52.72;95815.28;5040513;28;20689;-72
2023/10/05 06:31:36;;;;;;;12.73;5.78;;;;;;;17.83;52.37;95817.31;5046295;28;20274;-72
2023/10/05 06:34:01;;;;;;;8.15;5.78;;;;;;;17.88;52.07;95814.09;5039755;28;20222;-72
2023/10/05 06:36:26;;;;;;;10.75;5.00;;;;;;;17.73;52.61;95814.00;5041398;28;20226;-70
2023/10/05 06:38:52;;;;;;;15.50;5.10;;;;;;;17.96;51.11;95815.88;5044678;28;20221;-72
2023/10/05 06:41:24;;;;;;;9.43;5.55;;;;;;;17.90;51.46;95819.25;5048784;28;20202;-74
2023/10/05 06:43:49;;;;;;;11.73;5.68;;;;;;;18.11;50.74;95818.59;5040933;28;20226;-73
2023/10/05 06:46:17;;;;;;;11.60;4.85;;;;;;;17.98;51.03;95822.66;5038608;28;20259;-73
2023/10/05 06:48:50;;;;;;;17.80;5.82;;;;;;;18.10;50.75;95824.94;5048550;28;20309;-75
2023/10/05 06:51:27;;;;;;;8.55;5.30;;;;;;;18.11;50.51;95818.59;5035726;28;20642;-71
2023/10/05 06:53:53;;;;;;;12.35;5.32;;;;;;;18.16;50.47;95818.88;5022337;28;20183;-74
2023/10/05 06:56:20;;;;;;;10.98;5.18;;;;;;;18.31;49.88;95809.09;5044865;28;20200;-70
2023/10/05 06:58:46;;;;;;;11.10;4.82;;;;;;;18.25;49.79;95807.16;5044918;28;20237;-73
2023/10/05 07:01:11;;;;;;;13.23;4.95;;;;;;;18.16;49.81;95821.53;5042571;28;20311;-69
2023/10/05 07:03:38;;;;;;;11.30;4.72;;;;;;;17.99;50.94;95819.00;5037620;28;20889;-74
2023/10/05 07:06:04;;;;;;;16.30;5.00;;;;;;;18.00;50.55;95810.00;5037375;28;20197;-74
2023/10/05 07:08:33;;;;;;;10.82;5.05;;;;;;;17.97;50.40;95817.53;5047831;28;20189;-77
2023/10/05 07:10:59;;;;;;;10.45;5.25;;;;;;;18.10;50.35;95811.63;5049847;28;20283;-73
2023/10/05 07:13:28;;;;;;;7.15;4.60;;;;;;;18.14;50.22;95824.38;5047334;28;20222;-76
2023/10/05 07:15:55;;;;;;;10.38;4.82;;;;;;;18.13;50.97;95820.06;5043828;28;20220;-77
2023/10/05 07:18:21;;;;;;;12.45;4.78;;;;;;;18.29;50.01;95813.78;5037809;28;20225;-76
2023/10/05 07:20:48;;;;;;;10.40;5.10;;;;;;;17.90;50.29;95814.75;5037038;28;20214;-77
2023/10/05 07:23:13;;;;;;;14.90;4.70;;;;;;;17.99;50.78;95818.16;5045578;28;20324;-76
2023/10/05 07:25:41;;;;;;;11.65;5.43;;;;;;;18.05;50.36;95823.63;5048679;28;20213;-75
2023/10/05 07:28:13;;;;;;;7.47;4.72;;;;;;;17.93;50.50;95817.03;5042648;28;20213;-76
2023/10/05 07:30:41;;;;;;;8.10;4.88;;;;;;;17.97;51.30;95821.03;5042973;28;20226;-78
2023/10/05 07:33:06;;;;;;;5.97;4.40;;;;;;;18.05;50.64;95823.63;5039174;28;20218;-76
2023/10/05 07:35:32;;;;;;;8.90;5.20;;;;;;;18.20;51.23;95815.69;5049156;28;20185;-77
2023/10/05 07:37:59;;;;;;;8.73;5.00;;;;;;;18.30;50.21;95810.09;5038651;28;20226;-75
2023/10/05 07:40:24;;;;;;;10.88;4.43;;;;;;;18.55;49.45;95813.38;5039953;28;20217;-78
2023/10/05 07:42:50;;;;;;;6.75;4.47;;;;;;;18.58;49.73;95813.00;5041082;28;20651;-82
2023/10/05 07:45:15;;;;;;;10.82;4.78;;;;;;;18.67;50.47;95821.72;5045497;28;20297;-82
2023/10/05 07:47:46;;;;;;;7.53;4.20;;;;;;;18.78;49.74;95818.66;5039429;28;20239;-80
2023/10/05 07:50:12;;;;;;;14.32;4.55;;;;;;;18.89;49.21;95815.50;5045246;28;20229;-81
2023/10/05 07:52:39;;;;;;;8.23;5.40;;;;;;;18.95;50.04;95809.47;5047418;28;20252;-80
2023/10/05 07:55:06;;;;;;;9.32;5.50;;;;;;;18.99;49.21;95814.44;5040219;28;20585;-78
2023/10/05 07:57:31;;;;;;;8.45;4.78;;;;;;;19.02;48.14;95809.53;5042318;28;20832;-77
2023/10/05 07:59:57;;;;;;;9.48;5.40;;;;;;;19.01;48.39;95801.75;5048616;28;20185;-76
2023/10/05 08:02:22;;;;;;;12.30;5.45;;;;;;;18.80;49.40;95808.63;5038770;28;20189;-75
2023/10/05 08:04:48;;;;;;;14.48;6.20;;;;;;;18.98;49.46;95804.75;5048887;28;20229;-83
2023/10/05 08:07:13;;;;;;;8.63;5.55;;;;;;;19.05;48.82;95798.50;5046655;28;20222;-77
2023/10/05 08:09:42;;;;;;;10.25;5.20;;;;;;;19.08;49.33;95802.66;5051420;28;20276;-83
2023/10/05 08:12:08;;;;;;;9.68;4.78;;;;;;;19.08;49.02;95797.31;5051641;28;20232;-77
2023/10/05 08:14:33;;;;;;;12.27;6.13;;;;;;;19.26;48.98;95800.41;5049582;28;20184;-77
2023/10/05 08:16:59;;;;;;;12.63;5.95;;;;;;;19.34;48.68;95794.97;5044968;28;20636;-77
2023/10/05 08:19:25;;;;;;;11.40;5.18;;;;;;;19.36;47.92;95800.13;5057572;28;20213;-83
2023/10/05 08:21:52;;;;;;;10.85;5.95;;;;;;;19.38;47.74;95798.94;5038837;28;20278;-74
2023/10/05 08:24:18;;;;;;;12.70;6.22;;;;;;;19.32;47.88;95794.34;5047634;28;20221;-75
2023/10/05 08:26:44;;;;;;;11.13;5.28;;;;;;;19.20;48.23;95785.19;5048917;28;20673;-74
2023/10/05 08:29:09;;;;;;;12.15;5.57;;;;;;;19.30;48.78;95784.88;5048345;28;20228;-74
2023/10/05 08:31:36;;;;;;;12.93;5.93;;;;;;;19.49;48.26;95778.13;5038763;28;20253;-73
2023/10/05 08:34:03;;;;;;;8.25;5.75;;;;;;;19.51;49.15;95782.25;5040231;28;20225;-80
2023/10/05 08:36:30;;;;;;;10.90;5.63;;;;;;;19.44;48.31;95780.53;5046629;28;20222;-81
2023/10/05 08:38:56;;;;;;;11.38;5.28;;;;;;;19.50;48.98;95790.44;5053119;28;20231;-80
2023/10/05 08:41:36;;;;;;;13.27;5.88;;;;;;;19.59;49.23;95786.63;5045796;28;20186;-79
2023/10/05 08:44:06;;;;;;;11.80;5.70;;;;;;;19.53;48.30;95782.06;5039417;28;20245;-79
2023/10/05 08:46:43;;;;;;;10.63;5.60;;;;;;;19.52;48.95;95783.09;5041206;28;20228;-82
2023/10/05 08:49:12;;;;;;;10.05;6.13;;;;;;;19.65;48.36;95782.41;5041386;28;20222;-74
2023/10/05 08:51:39;;;;;;;12.52;5.43;;;;;;;19.82;48.73;95778.50;5039974;28;20209;-79
2023/10/05 08:54:09;;;;;;;11.45;6.07;;;;;;;19.98;48.02;95780.09;5043899;28;20194;-78
2023/10/05 08:56:47;;;;;;;14.80;5.72;;;;;;;20.04;48.01;95781.97;5057052;28;20203;-75
2023/10/05 08:59:13;;;;;;;17.02;6.22;;;;;;;20.16;47.59;95774.28;5041348;28;20231;-74
2023/10/05 09:01:43;;;;;;;10.73;5.38;;;;;;;20.30;47.92;95769.88;5039779;28;20299;-74
2023/10/05 09:06:47;;;;;;;11.20;6.88;;;;;;;20.64;45.80;95769.94;5036651;28;20301;-72
2023/10/05 09:09:14;;;;;;;10.52;5.95;;;;;;;20.64;46.41;95769.94;5041066;28;20225;-72
2023/10/05 09:11:41;;;;;;;8.45;6.03;;;;;;;20.70;46.49;95776.34;5042181;28;20186;-71
2023/10/05 09:14:12;;;;;;;10.68;6.07;;;;;;;20.81;45.77;95767.78;5041851;28;20218;-72
2023/10/05 09:16:42;;;;;;;12.20;7.32;;;;;;;21.06;46.00;95769.94;5045906;28;20221;-73
2023/10/05 09:19:23;;;;;;;12.23;6.35;;;;;;;21.13;44.40;95776.97;5046888;28;20218;-74
2023/10/05 09:24:25;;;;;;;11.50;6.47;;;;;;;21.02;45.85;95768.72;5039567;28;20229;-73
2023/10/05 09:26:58;;;;;;;14.15;7.13;;;;;;;21.07;45.36;95769.75;5046140;28;20582;-71
2023/10/05 09:29:28;;;;;;;13.23;8.10;;;;;;;21.14;45.28;95759.09;5040108;28;20182;-73
2023/10/05 09:31:55;;;;;;;14.30;7.20;;;;;;;21.30;44.88;95760.59;5045094;28;20228;-72
2023/10/05 09:34:43;;;;;;;12.52;6.85;;;;;;;21.19;45.63;95753.13;5042453;28;20231;-73
2023/10/05 09:37:11;;;;;;;9.65;7.47;;;;;;;21.24;45.03;95759.53;5047427;28;20309;-72
2023/10/05 09:39:44;;;;;;;11.45;7.75;;;;;;;21.20;45.20;95752.09;5037183;28;20221;-72
2023/10/05 09:42:22;;;;;;;12.57;7.43;;;;;;;21.41;45.16;95749.34;5040655;28;20258;-74
2023/10/05 09:44:52;;;;;;;20.95;14.77;;;;;;;21.59;45.61;95740.75;5039532;28;20205;-73
2023/10/05 09:47:32;;;;;;;12.30;7.15;;;;;;;21.44;44.25;95737.41;5038970;28;20243;-74
2023/10/05 09:50:09;;;;;;;13.68;7.15;;;;;;;21.67;44.65;95732.50;5036768;28;20585;-74
2023/10/05 09:52:43;;;;;;;11.75;7.47;;;;;;;21.85;43.77;95736.47;5042069;28;21085;-74
2023/10/05 09:55:12;;;;;;;10.45;6.90;;;;;;;21.95;44.12;95726.19;5040901;28;20225;-75
2023/10/05 09:57:46;;;;;;;12.70;7.53;;;;;;;21.85;43.62;95726.56;5037131;28;20706;-75
2023/10/05 10:02:56;;;;;;;14.35;8.10;;;;;;;22.30;42.08;95709.94;5037786;28;20241;-74
2023/10/05 10:05:26;;;;;;;9.77;6.93;;;;;;;22.18;43.27;95713.22;5047005;28;20302;-76
2023/10/05 10:07:56;;;;;;;12.70;7.30;;;;;;;22.34;42.61;95720.00;5039768;28;20260;-74
2023/10/05 10:10:24;;;;;;;12.35;7.35;;;;;;;22.51;42.98;95709.69;5038420;28;20226;-74
2023/10/05 10:12:52;;;;;;;12.05;7.18;;;;;;;22.67;41.97;95708.41;5037452;28;20308;-75
2023/10/05 10:15:33;;;;;;;11.55;7.28;;;;;;;22.44;41.50;95707.00;5040106;28;20305;-74
2023/10/05 10:18:14;;;;;;;10.13;6.68;;;;;;;22.22;42.32;95700.25;5043751;28;20200;-75
2023/10/05 10:20:52;;;;;;;11.50;7.00;;;;;;;22.26;42.58;95698.78;5039260;28;20280;-75
2023/10/05 10:23:38;;;;;;;10.88;6.88;;;;;;;22.55;42.39;95692.13;5040321;28;20600;-74
2023/10/05 10:26:20;;;;;;;9.40;6.32;;;;;;;22.81;41.63;95693.94;5056130;28;20235;-74
2023/10/05 10:28:56;;;;;;;8.43;7.28;;;;;;;23.05;41.28;95683.56;5037784;28;20217;-74
2023/10/05 10:31:29;;;;;;;8.82;6.88;;;;;;;23.17;41.08;95687.19;5042612;28;20214;-73
2023/10/05 10:33:56;;;;;;;9.73;6.43;;;;;;;23.33;41.01;95680.50;5048035;28;20214;-76
2023/10/05 10:36:48;;;;;;;11.60;6.70;;;;;;;23.65;40.45;95673.28;5042796;28;20241;-71
2023/10/05 10:39:23;;;;;;;9.85;7.22;;;;;;;23.86;39.19;95663.25;5045700;28;20229;-71
2023/10/05 10:42:12;;;;;;;13.32;7.35;;;;;;;23.51;41.50;95663.69;5043538;28;20654;-68
2023/10/05 10:47:22;;;;;;;12.32;6.60;;;;;;;23.92;40.20;95651.63;5038963;28;20236;-72
2023/10/05 10:50:22;;;;;;;12.73;6.72;;;;;;;24.02;39.04;95657.31;5043921;28;20221;-72
2023/10/05 10:52:52;;;;;;;12.25;7.15;;;;;;;24.20;38.26;95645.81;5044976;28;20305;-73
2023/10/05 10:55:20;;;;;;;13.10;7.13;;;;;;;24.02;38.44;95648.44;5036442;28;20744;-71
2023/10/05 10:57:53;;;;;;;11.27;6.70;;;;;;;24.05;38.82;95642.63;5049560;28;20217;-71
2023/10/05 11:03:15;;;;;;;9.70;6.88;;;;;;;24.54;37.75;95630.16;5046174;28;20264;-71
2023/10/05 11:05:44;;;;;;;10.02;7.05;;;;;;;24.69;38.50;95624.41;5048981;28;20208;-73
2023/10/05 11:08:13;;;;;;;11.98;8.23;;;;;;;24.86;37.11;95626.28;5041780;28;20217;-73
2023/10/05 11:10:42;;;;;;;15.13;6.82;;;;;;;24.86;36.67;95620.09;5046153;28;20585;-73
2023/10/05 11:13:15;;;;;;;11.13;7.53;;;;;;;24.76;36.20;95617.91;5043161;28;20264;-77
2023/10/05 11:16:03;;;;;;;11.18;6.93;;;;;;;24.94;35.74;95603.63;5039900;28;20225;-75
2023/10/05 11:18:39;;;;;;;8.07;6.88;;;;;;;24.93;36.44;95618.09;5042808;28;20220;-73
2023/10/05 11:21:19;;;;;;;14.00;7.00;;;;;;;25.16;35.63;95608.53;5042378;28;20193;-75
2023/10/05 11:23:55;;;;;;;14.57;7.50;;;;;;;25.13;35.40;95603.56;5047864;28;20225;-75
2023/10/05 11:26:57;;;;;;;12.07;7.07;;;;;;;25.23;36.35;95598.47;5049475;28;20572;-73
2023/10/05 11:29:15;;;;;;;10.00;7.18;;;;;;;25.04;35.04;95603.88;5043225;28;20305;-73
2023/10/05 11:31:41;;;;;;;16.52;7.53;;;;;;;25.12;35.10;95599.25;5047478;28;20237;-72
2023/10/05 11:34:11;;;;;;;11.13;7.32;;;;;;;25.05;35.33;95597.47;5040942;28;20244;-72
2023/10/05 11:36:39;;;;;;;8.18;7.30;;;;;;;25.21;35.94;95593.34;5046093;28;20275;-72
2023/10/05 11:39:21;;;;;;;9.23;7.18;;;;;;;25.18;34.96;95585.72;5042193;28;20634;-72
2023/10/05 11:41:47;;;;;;;7.75;6.93;;;;;;;25.39;35.35;95578.97;5044537;28;20221;-72
2023/10/05 11:44:20;;;;;;;10.43;6.55;;;;;;;25.63;35.55;95577.16;5042007;28;20679;-74
2023/10/05 11:46:46;;;;;;;11.63;6.70;;;;;;;25.70;34.86;95572.47;5040025;28;20706;-72
2023/10/05 11:49:13;;;;;;;9.90;7.35;;;;;;;25.75;34.60;95574.47;5041278;28;20233;-75
2023/10/05 11:51:42;;;;;;;12.00;7.60;;;;;;;25.89;34.50;95577.78;5041475;28;20221;-75
2023/10/05 11:54:08;;;;;;;10.30;8.07;;;;;;;26.00;34.69;95573.47;5047279;28;20213;-74
2023/10/05 11:56:34;;;;;;;8.85;7.40;;;;;;;26.31;33.32;95572.25;5036644;28;20197;-76
2023/10/05 11:59:00;;;;;;;10.10;7.25;;;;;;;26.18;33.88;95576.84;5043381;28;20217;-75
2023/10/05 12:01:32;;;;;;;10.38;7.55;;;;;;;25.86;33.77;95567.50;5049017;28;20237;-74
2023/10/05 12:03:58;;;;;;;10.50;7.32;;;;;;;25.56;34.32;95565.69;5046941;28;20285;-74